M I D A S
Marine Information and Data Acquisition System
Tripno 629 of the Zeeleeuw from 2004-01-05 07:40:16 to 2004-01-05 13:56:09
Back to CruiseResearch ActivitiesStationsMapUnderway DataData graphs

EquipmentUnitsComment
TimeDGPSUTC
LatitudeDGPSDM.mWGS84
LongitudeDGPSDM.mWGS84
HeadingGyrodeg 
SOGDGPSknotsSpeed over ground
COGDGPSdegCourse over ground
DepthEcho soundermeters200 kHz
Missing or incorrect values are displayed as -999
Navigation data collected by the RV Zeeleeuw from 2004-01-05 07:40:16 to 2004-01-05 13:56:09
Time Latitude Longitude Heading SOG COG Depth
2004-01-05 07:41:20 51°13.601 2°56.078 119 2.5 296 -999
2004-01-05 07:42:20 51°13.626 2°55.998 119 3.8 295 -999
2004-01-05 07:43:18 51°13.655 2°55.902 120.5 4.4 296 -999
2004-01-05 07:44:20 51°13.686 2°55.795 114.8 4.1 293 -999
2004-01-05 07:45:20 51°13.699 2°55.776 70.6 1.9 57 13.7
2004-01-05 07:46:20 51°13.694 2°55.766 33.4 2.2 217 -999
2004-01-05 07:47:18 51°13.718 2°55.747 336.6 3.1 331 12.3
2004-01-05 07:48:20 51°13.789 2°55.672 333.1 6.1 328 10.4
2004-01-05 07:49:20 51°13.892 2°55.587 339.4 7.4 334 10.3
2004-01-05 07:50:20 51°14.01 2°55.502 340.2 7.8 336 9.8
2004-01-05 07:51:20 51°14.129 2°55.414 340 8.1 335 9.4
2004-01-05 07:52:20 51°14.26 2°55.278 325.2 9.8 320 10.2
2004-01-05 07:53:19 51°14.361 2°55.06 307.2 11.1 301 10.6
2004-01-05 07:54:20 51°14.398 2°54.744 271.8 12.6 267 10.7
2004-01-05 07:55:20 51°14.331 2°54.424 244.5 12.8 241 9.6
2004-01-05 07:56:18 51°14.232 2°54.132 244.5 13 241 9.3
2004-01-05 07:57:20 51°14.125 2°53.82 245.5 13 241 9.2
2004-01-05 07:58:20 51°14.023 2°53.515 246.2 13 242 9.5
2004-01-05 07:59:19 51°13.922 2°53.213 246 13.2 242 9.8
2004-01-05 08:00:18 51°13.816 2°52.902 244.9 14 241 10.1
2004-01-05 08:01:18 51°13.707 2°52.572 246.8 14.1 242 10.4
2004-01-05 08:02:19 51°13.592 2°52.236 246.3 14.2 241 10.8
2004-01-05 08:03:18 51°13.484 2°51.91 247.1 14.2 243 10.8
2004-01-05 08:04:20 51°13.37 2°51.568 247.1 14.1 242 10.7
2004-01-05 08:05:19 51°13.261 2°51.243 246 14.2 242 10.8
2004-01-05 08:06:19 51°13.153 2°50.913 247 14.1 243 11.2
2004-01-05 08:07:19 51°13.043 2°50.583 246.7 14.1 242 11.3
2004-01-05 08:08:20 51°12.933 2°50.245 246 14.2 243 11.6
2004-01-05 08:09:18 51°12.828 2°49.924 246.2 14.1 243 11.7
2004-01-05 08:10:19 51°12.717 2°49.588 245.7 14 242 11.9
2004-01-05 08:11:18 51°12.61 2°49.265 246 14 242 12.1
2004-01-05 08:12:18 51°12.504 2°48.938 247.3 13.9 244 12.2
2004-01-05 08:13:20 51°12.405 2°48.592 249.9 13.9 246 12.5
2004-01-05 08:14:20 51°12.31 2°48.256 250 13.8 246 12.6
2004-01-05 08:15:20 51°12.216 2°47.922 249.1 13.9 246 12.9
2004-01-05 08:16:20 51°12.12 2°47.588 248.9 13.8 245 13.1
2004-01-05 08:17:23 51°12.02 2°47.238 249.6 13.9 246 13.2
2004-01-05 08:18:42 51°11.893 2°46.798 249.1 13.8 246 13.3
2004-01-05 08:19:43 51°11.799 2°46.459 249.6 13.8 246 13.5
2004-01-05 08:20:42 51°11.709 2°46.131 249.6 13.7 246 13.4
2004-01-05 08:21:43 51°11.613 2°45.793 249 13.7 246 13.3
2004-01-05 08:22:46 51°11.522 2°45.442 252.9 13.7 249 13.3
2004-01-05 08:23:45 51°11.444 2°45.107 250.4 13.7 247 13.4
2004-01-05 08:24:46 51°11.351 2°44.768 249.6 13.7 247 13.3
2004-01-05 08:25:46 51°11.26 2°44.436 250.4 13.6 247 13.2
2004-01-05 08:26:46 51°11.173 2°44.101 251 13.7 248 13.1
2004-01-05 08:27:46 51°11.091 2°43.767 253.2 13.4 251 13.2
2004-01-05 08:28:46 51°11.018 2°43.429 254 13.5 250 13.2
2004-01-05 08:29:50 51°10.94 2°43.071 253.6 13.3 250 13.2
2004-01-05 08:31:03 51°10.853 2°42.665 254.2 13.3 251 13.2
2004-01-05 08:32:09 51°10.776 2°42.298 255.3 13.4 252 13.2
2004-01-05 08:33:07 51°10.705 2°41.973 254.4 13.3 251 13.3
2004-01-05 08:34:09 51°10.633 2°41.627 255.2 13.3 252 13.4
2004-01-05 08:35:06 51°10.564 2°41.309 253.5 13.2 250 13.3
2004-01-05 08:36:09 51°10.489 2°40.958 255.2 13.3 252 13.5
2004-01-05 08:37:09 51°10.416 2°40.626 253.5 13.3 251 13.6
2004-01-05 08:38:07 51°10.347 2°40.301 254.8 13.3 252 13.8
2004-01-05 08:39:07 51°10.277 2°39.969 254.9 13.3 252 14.2
2004-01-05 08:40:14 51°10.201 2°39.597 254.2 13.2 252 14.7
2004-01-05 08:41:14 51°10.13 2°39.263 253.7 13.3 251 15.3
2004-01-05 08:42:12 51°10.065 2°38.943 254.7 13.2 251 15.8
2004-01-05 08:43:14 51°9.994 2°38.598 254.5 13.3 252 16.3
2004-01-05 08:44:13 51°9.928 2°38.271 254.6 13.2 252 16.8
2004-01-05 08:45:14 51°9.859 2°37.934 253.6 13.3 252 17.7
2004-01-05 08:46:31 51°9.774 2°37.511 254.3 13 252 17.9
2004-01-05 08:47:32 51°9.707 2°37.176 253.8 13 252 17.9
2004-01-05 08:48:32 51°9.64 2°36.848 253.5 13 252 17.5
2004-01-05 08:49:41 51°9.567 2°36.468 254.3 13.1 253 18.2
2004-01-05 08:50:41 51°9.504 2°36.139 254.7 13 253 18
2004-01-05 08:51:55 51°9.422 2°35.791 240 9.1 238 18.3
2004-01-05 08:52:57 51°9.368 2°35.591 257.1 6.9 257 18.5
2004-01-05 08:53:57 51°9.343 2°35.486 242.2 2.7 244 18.9
2004-01-05 08:54:57 51°9.348 2°35.461 281.7 1.1 322 18.3
2004-01-05 08:56:27 51°9.377 2°35.431 290.3 1.5 326 18.9
2004-01-05 08:57:42 51°9.403 2°35.406 291.5 1.5 331 19.5
2004-01-05 08:58:43 51°9.424 2°35.388 292.4 1.4 333 18.7
2004-01-05 08:59:43 51°9.446 2°35.373 297.1 1.4 338 19.2
2004-01-05 09:00:42 51°9.47 2°35.361 304.6 1.6 342 19.2
2004-01-05 09:01:43 51°9.498 2°35.349 306.5 1.7 346 19.7
2004-01-05 09:02:43 51°9.525 2°35.34 307.8 1.7 349 20.2
2004-01-05 09:03:43 51°9.552 2°35.331 309.3 1.7 348 20.4
2004-01-05 09:04:42 51°9.58 2°35.323 309 1.7 349 20.4
2004-01-05 09:05:42 51°9.608 2°35.315 308.9 1.6 349 20.7
2004-01-05 09:06:42 51°9.636 2°35.309 309.4 1.6 349 21
2004-01-05 09:07:43 51°9.666 2°35.305 310.7 1.7 355 20.8
2004-01-05 09:08:42 51°9.695 2°35.303 310.1 1.7 357 20.7
2004-01-05 09:09:42 51°9.723 2°35.301 311.6 1.7 357 20.8
2004-01-05 09:10:43 51°9.752 2°35.299 311.3 1.7 359 20.6
2004-01-05 09:11:43 51°9.783 2°35.297 311.3 1.9 354 20.7
2004-01-05 09:12:43 51°9.837 2°35.269 325.6 5.1 338 20
2004-01-05 09:13:42 51°10.012 2°35.197 356 13.7 358 13.4
2004-01-05 09:14:42 51°10.237 2°35.329 28 14.8 27 13.3
2004-01-05 09:15:42 51°10.457 2°35.511 28.4 14.8 27 12.3
2004-01-05 09:16:42 51°10.676 2°35.697 30.8 15 30 12.3
2004-01-05 09:17:43 51°10.896 2°35.897 31.6 15 30 12.5
2004-01-05 09:18:42 51°11.103 2°36.104 34.9 15 33 12.7
2004-01-05 09:19:43 51°11.314 2°36.325 35.3 14.8 34 12.9
2004-01-05 09:20:43 51°11.521 2°36.542 34.2 14.8 32 13
2004-01-05 09:21:43 51°11.728 2°36.757 35.5 14.9 33 12.9
2004-01-05 09:22:43 51°11.937 2°36.971 34.5 14.9 33 12.9
2004-01-05 09:23:42 51°12.141 2°37.182 35 14.8 33 13.1
2004-01-05 09:24:43 51°12.35 2°37.4 35.4 14.8 33 13.5
2004-01-05 09:25:42 51°12.553 2°37.613 35.6 14.9 33 14.2
2004-01-05 09:26:43 51°12.76 2°37.844 37.9 15 35 14.7
2004-01-05 09:27:42 51°12.957 2°38.073 38.9 14.9 37 15.8
2004-01-05 09:28:43 51°13.163 2°38.308 37.9 14.9 35 16.3
2004-01-05 09:29:43 51°13.362 2°38.54 38.4 14.9 36 16.5
2004-01-05 09:30:43 51°13.565 2°38.765 38.1 14.8 35 16.9
2004-01-05 09:31:42 51°13.77 2°38.967 33.2 14.8 31 16.6
2004-01-05 09:32:43 51°13.998 2°39.075 2.6 13.8   15.7
2004-01-05 09:33:42 51°14.199 2°38.951 322.9 13 320 14.4
2004-01-05 09:34:43 51°14.272 2°38.639 276.6 12.7 274 18.2
2004-01-05 09:35:43 51°14.216 2°38.323 248.3 12.6 244 20.4
2004-01-05 09:36:42 51°14.122 2°38.033 246.8 12.5 244 20.8
2004-01-05 09:37:43 51°14.032 2°37.732 248.4 12.3 244 21.4
2004-01-05 09:38:43 51°13.943 2°37.433 249.6 12.4 245 22.5
2004-01-05 09:39:42 51°13.857 2°37.142 249.6 12.1 244 22.3
2004-01-05 09:40:42 51°13.772 2°36.846 249.4 12.2 245 22.5
2004-01-05 09:41:43 51°13.684 2°36.546 249.9 12.3 244 22.2
2004-01-05 09:42:43 51°13.598 2°36.251 250.8 12.3 244 21.5
2004-01-05 09:43:42 51°13.513 2°35.958 250.4 12.3 245 19.2
2004-01-05 09:44:42 51°13.426 2°35.661 250.1 12.4 245 19.9
2004-01-05 09:45:43 51°13.338 2°35.359 250.9 12.5 245 19.6
2004-01-05 09:46:42 51°13.252 2°35.066 249.5 12.5 245 19.1
2004-01-05 09:47:42 51°13.165 2°34.767 250.8 12.5 246 19.6
2004-01-05 09:48:43 51°13.077 2°34.462 250.5 12.5 245 19.2
2004-01-05 09:49:42 51°12.992 2°34.167 249.4 12.4 245 18.6
2004-01-05 09:50:42 51°12.904 2°33.869 248.8 12.5 244 17.5
2004-01-05 09:51:43 51°12.814 2°33.563 250.2 12.5 245 17.3
2004-01-05 09:52:43 51°12.727 2°33.261 250.2 12.6 246 17.6
2004-01-05 09:53:42 51°12.641 2°32.962 250.7 12.5 245 18.5
2004-01-05 09:54:43 51°12.555 2°32.653 250.4 12.5 246 19.6
2004-01-05 09:55:42 51°12.471 2°32.353 250.9 12.6 247 21.5
2004-01-05 09:56:43 51°12.384 2°32.046 250.2 12.5 246 23.5
2004-01-05 09:57:43 51°12.3 2°31.741 250.7 12.6 247 25.2
2004-01-05 09:58:43 51°12.219 2°31.437 250.4 12.5 247 25.2
2004-01-05 09:59:42 51°12.139 2°31.143 249 12.2 245 25.2
2004-01-05 10:00:42 51°12.059 2°30.844 250.1 12.3 247 24.6
2004-01-05 10:01:42 51°11.98 2°30.548 250.4 12.2 247 24.9
2004-01-05 10:02:42 51°11.901 2°30.251 250.5 12.2 247 25
2004-01-05 10:03:42 51°11.823 2°29.955 249.9 12.1 246 25.1
2004-01-05 10:04:43 51°11.742 2°29.657 250 12.2 245 24.9
2004-01-05 10:05:43 51°11.661 2°29.361 249.8 12.2 247 25.7
2004-01-05 10:06:42 51°11.579 2°29.071 250.1 12.3 246 26.2
2004-01-05 10:07:43 51°11.496 2°28.768 250 12.2 246 26.2
2004-01-05 10:08:43 51°11.412 2°28.473 250.3 12.3 246 25.9
2004-01-05 10:09:42 51°11.33 2°28.182 250.7 12.3 246 25.3
2004-01-05 10:10:42 51°11.244 2°27.887 250.8 12.4 246 24.1
2004-01-05 10:11:42 51°11.169 2°27.585 256.9 12.3 254 24
2004-01-05 10:12:42 51°11.14 2°27.262 269.2 12.4 268 25.1
2004-01-05 10:13:42 51°11.155 2°26.933 277.8 12.5 276 24.5
2004-01-05 10:14:43 51°11.178 2°26.597 278.1 12.6 277 22.2
2004-01-05 10:15:42 51°11.212 2°26.275 284.5 12.6 284 18.4
2004-01-05 10:16:42 51°11.298 2°25.976 308.8 12.8 312 14.8
2004-01-05 10:17:42 51°11.514 2°25.887 353.5 14.2 355 19.2
2004-01-05 10:18:42 51°11.753 2°25.847 352.7 14.6 354 25.3
2004-01-05 10:19:42 51°11.993 2°25.79 347.9 14.5 349 26.9
2004-01-05 10:20:42 51°12.232 2°25.716 347.6 14.7 349 27.4
2004-01-05 10:21:43 51°12.476 2°25.643 347.6 14.6 349 28.3
2004-01-05 10:22:43 51°12.716 2°25.566 345 14.6 347 28
2004-01-05 10:23:42 51°12.951 2°25.482 345.3 14.8 348 29
2004-01-05 10:24:42 51°13.141 2°25.42 341.5 9.5 348 29.7
2004-01-05 10:25:43 51°13.241 2°25.373 321.7 4.2 342 30.3
2004-01-05 10:26:42 51°13.288 2°25.372 336.6 2.6 9 30.5
2004-01-05 10:27:43 51°13.331 2°25.384 334.4 2.6 10 29.9
2004-01-05 10:28:42 51°13.373 2°25.394 333.3 2.5 8 30.7
2004-01-05 10:29:43 51°13.417 2°25.406 341.1 2.7 9 30.6
2004-01-05 10:30:43 51°13.462 2°25.423 351.2 2.9 16 30.2
2004-01-05 10:31:43 51°13.507 2°25.454 9.5 3 27 30.3
2004-01-05 10:32:43 51°13.551 2°25.502 32.9 3.2 40 30.2
2004-01-05 10:33:43 51°13.59 2°25.563 44.8 3.4 47 29.8
2004-01-05 10:34:43 51°13.627 2°25.633 54.8 3.4 52 29.6
2004-01-05 10:35:42 51°13.66 2°25.706 63.5 3.5 57 29.8
2004-01-05 10:36:42 51°13.69 2°25.784 70 3.4 60 29.8
2004-01-05 10:37:43 51°13.718 2°25.865 73.9 3.4 62 29.6
2004-01-05 10:38:42 51°13.744 2°25.945 77.6 3.5 63 29.3
2004-01-05 10:39:43 51°13.769 2°26.027 83.4 3.4 65 29.9
2004-01-05 10:40:43 51°13.793 2°26.108 86.8 3.3 66 29.8
2004-01-05 10:41:42 51°13.814 2°26.186 91.4 3.2 68 29.8
2004-01-05 10:42:43 51°13.836 2°26.261 93.9 3 65 29.5
2004-01-05 10:43:42 51°13.856 2°26.329 99.1 2.8 65 30.2
2004-01-05 10:44:43 51°13.89 2°26.494 73.5 9.8 66 30.3
2004-01-05 10:45:43 51°14.042 2°26.747 43.5 14.8 40 30.3
2004-01-05 10:46:42 51°14.232 2°27.016 45.4 15.7 41 30.6
2004-01-05 10:47:43 51°14.429 2°27.3 45.8 15.7 43 30.7
2004-01-05 10:48:42 51°14.619 2°27.579 46.2 15.8 43 30.6
2004-01-05 10:49:42 51°14.81 2°27.864 47.6 15.8 44 31.2
2004-01-05 10:50:43 51°15.007 2°28.155 45.9 15.9 43 30.8
2004-01-05 10:51:43 51°15.2 2°28.441 46.4 15.8 43 31.1
2004-01-05 10:52:43 51°15.396 2°28.724 45.9 15.8 43 31
2004-01-05 10:53:43 51°15.587 2°29.009 46.9 15.7 43 30.8
2004-01-05 10:54:42 51°15.74 2°29.238 46.4 11.8 44 30.7
2004-01-05 10:55:42 51°15.877 2°29.446 45.8 11.3 43 31
2004-01-05 10:56:42 51°16.011 2°29.651 46.3 11 44 31.1
2004-01-05 10:57:43 51°16.146 2°29.857 46.4 11 44 30.9
2004-01-05 10:58:42 51°16.277 2°30.056 46.4 11 44 30.5
2004-01-05 10:59:42 51°16.41 2°30.258 46.3 11 44 31
2004-01-05 11:00:43 51°16.544 2°30.465 46.6 11.1 44 30.7
2004-01-05 11:01:43 51°16.676 2°30.67 46.3 11.1 45 30.8
2004-01-05 11:02:43 51°16.809 2°30.873 46.6 11 44 30.5
2004-01-05 11:03:43 51°16.941 2°31.076 46.2 11.1 44 30.2
2004-01-05 11:04:43 51°17.074 2°31.279 46.1 11.1 43 28.7
2004-01-05 11:05:43 51°17.205 2°31.483 46.4 11 44 29.7
2004-01-05 11:06:43 51°17.338 2°31.686 46.3 11.1 44 29.6
2004-01-05 11:07:43 51°17.47 2°31.891 46.3 11.1 44 28.7
2004-01-05 11:08:46 51°17.608 2°32.105 46.1 11 44 28.6
2004-01-05 11:09:57 51°17.765 2°32.348 46.5 11.1 44 27.5
2004-01-05 11:10:57 51°17.898 2°32.551 45.8 11.1 44 26.5
2004-01-05 11:11:57 51°18.03 2°32.755 46.3 11 44 25.8
2004-01-05 11:12:57 51°18.162 2°32.957 45.7 11 44 24.6
2004-01-05 11:13:57 51°18.293 2°33.161 46.1 11 44 22.8
2004-01-05 11:14:57 51°18.424 2°33.363 46 11 44 20.9
2004-01-05 11:15:57 51°18.554 2°33.566 46.4 10.9 44 17.9
2004-01-05 11:16:57 51°18.684 2°33.771 46.1 10.9 44 18.8
2004-01-05 11:17:56 51°18.81 2°33.97 46.4 10.8 45 19
2004-01-05 11:18:57 51°18.94 2°34.175 46.4 10.8 44 17.1
2004-01-05 11:19:57 51°19.067 2°34.376 46.6 10.8 45 18.7
2004-01-05 11:20:57 51°19.195 2°34.578 46.4 10.8 45 19
2004-01-05 11:22:03 51°19.336 2°34.798 46.8 10.7 44 18.6
2004-01-05 11:23:09 51°19.474 2°35.021 49 10.2 46 20
2004-01-05 11:24:06 51°19.576 2°35.18 43.1 8.5 42 20
2004-01-05 11:25:09 51°19.661 2°35.292 27.9 4.2 36 20.1
2004-01-05 11:26:09 51°19.694 2°35.341 33 2.9 42 20.3
2004-01-05 11:27:46 51°19.746 2°35.445 68.4 3.2 58 20.3
2004-01-05 11:28:59 51°19.779 2°35.535 82.4 3.2 63 20.4
2004-01-05 11:30:01 51°19.802 2°35.615 94.2 3.1 69 21
2004-01-05 11:31:01 51°19.82 2°35.693 100.6 3.1 71 20.8
2004-01-05 11:32:01 51°19.836 2°35.769 108.4 2.9 75 22.1
2004-01-05 11:33:01 51°19.848 2°35.845 113.7 2.9 77 22.5
2004-01-05 11:34:00 51°19.859 2°35.919 116.1 2.9 77 22.2
2004-01-05 11:35:01 51°19.869 2°35.994 117.5 2.9 77 22.1
2004-01-05 11:36:00 51°19.878 2°36.067 123.6 2.8 81 23.4
2004-01-05 11:37:01 51°19.884 2°36.138 128.3 2.7 82 23.6
2004-01-05 11:38:01 51°19.89 2°36.206 130.8 2.5 83 23.7
2004-01-05 11:39:00 51°19.896 2°36.27 131.6 2.5 81 22.9
2004-01-05 11:40:01 51°19.902 2°36.338 130.6 2.6 81 23.8
2004-01-05 11:41:01 51°19.907 2°36.403 134.6 2.5 82 22.9
2004-01-05 11:42:01 51°19.914 2°36.468 135.4 2.4 82 24.1
2004-01-05 11:42:58 51°19.916 2°36.527 142 2.7 94 22.8
2004-01-05 11:44:00 51°19.906 2°36.712 89.9 10.3 81 22.2
2004-01-05 11:45:15 51°19.97 2°37.168 85.9 15 79 23.6
2004-01-05 11:46:14 51°20.01 2°37.556 89.7 15 82 23.9
2004-01-05 11:47:14 51°20.04 2°37.95 90.6 15 83 25.2
2004-01-05 11:48:14 51°20.069 2°38.346 92.1 15.1 84 25.5
2004-01-05 11:49:27 51°20.097 2°38.829 92.5 15 85 26.6
2004-01-05 11:50:26 51°20.119 2°39.216 92.9 15 85 27.2
2004-01-05 11:51:27 51°20.147 2°39.617 92.1 14.9 83 29.8
2004-01-05 11:52:26 51°20.177 2°40.004 91.8 15 83 30.5
2004-01-05 11:53:26 51°20.203 2°40.401 93.6 15.1 85 30.6
2004-01-05 11:54:26 51°20.231 2°40.8 92.5 15.1 83 30.3
2004-01-05 11:55:27 51°20.261 2°41.208 90.7 15.2 83 22.3
2004-01-05 11:56:26 51°20.281 2°41.601 96.9 14.8 90 23.3
2004-01-05 11:57:27 51°20.137 2°41.817 185.8 11.7 180 18.9
2004-01-05 11:58:26 51°20.001 2°41.608 238.9 12.1 236 20.8
2004-01-05 11:59:27 51°19.882 2°41.356 233.7 10.4 228 21.2
2004-01-05 12:00:27 51°19.794 2°41.249 218.5 4.7 209 18.3
2004-01-05 12:01:27 51°19.749 2°41.192 231.6 3.6 224 20
2004-01-05 12:02:27 51°19.696 2°41.214 151.6 4.5 125 19.2
2004-01-05 12:03:27 51°19.729 2°41.387 63.7 10.1 58 20.4
2004-01-05 12:04:26 51°19.833 2°41.673 69.4 13.3 63 22.1
2004-01-05 12:05:26 51°19.915 2°42.007 78.7 13.9 72 23.2
2004-01-05 12:06:27 51°19.984 2°42.394 81.1 15.2 74 26.1
2004-01-05 12:07:26 51°20.053 2°42.776 80.6 15.2 74 27.6
2004-01-05 12:08:26 51°20.125 2°43.162 80.1 15.3 73 28.5
2004-01-05 12:09:27 51°20.196 2°43.557 82.5 15.1 76 29
2004-01-05 12:10:26 51°20.239 2°43.95 90.6 15.2 83 27.9
2004-01-05 12:11:26 51°20.262 2°44.351 92.1 15.3 84 27.7
2004-01-05 12:12:27 51°20.295 2°44.76 88 15.3 80 26.3
2004-01-05 12:13:26 51°20.341 2°45.15 88.3 14.3 80 25.1
2004-01-05 12:14:27 51°20.367 2°45.426 94.8 8.8 84 26.2
2004-01-05 12:15:35 51°20.383 2°45.662 94.6 7.5 81 23.8
2004-01-05 12:16:38 51°20.408 2°45.844 89.1 5.1 74 23.4
2004-01-05 12:17:38 51°20.432 2°45.89 110.4 2 42 22.9
2004-01-05 12:18:38 51°20.447 2°45.97 115 3.5 79 21.6
2004-01-05 12:19:38 51°20.454 2°46.054 126.2 3 84 22.9
2004-01-05 12:20:38 51°20.459 2°46.126 129.4 2.6 83 22.7
2004-01-05 12:21:38 51°20.466 2°46.191 132.7 2.3 79 22.6
2004-01-05 12:22:38 51°20.474 2°46.25 137.8 2.2 77 22.2
2004-01-05 12:23:38 51°20.483 2°46.305 139.9 2.2 73 21.5
2004-01-05 12:25:19 51°20.5 2°46.398 140.7 2.1 76 21.9
2004-01-05 12:26:43 51°20.508 2°46.47 154 1.8 85 21.3
2004-01-05 12:27:43 51°20.51 2°46.518 163.9 1.8 86 20.1
2004-01-05 12:28:43 51°20.511 2°46.562 172 1.6 89 17.8
2004-01-05 12:29:44 51°20.511 2°46.607 175.3 1.6 93 18.3
2004-01-05 12:30:47 51°20.508 2°46.645 188.7 1.3 97 20.4
2004-01-05 12:31:47 51°20.505 2°46.672 203.7 0.9 97 20.5
2004-01-05 12:32:47 51°20.504 2°46.685 225.6 0.2 111 20.2
2004-01-05 12:33:47 51°20.511 2°46.683 249.4 0.8 302 20.2
2004-01-05 12:34:47 51°20.462 2°46.606 212 7.5 205 16.3
2004-01-05 12:35:47 51°20.289 2°46.712 150.8 13.5 142 17.2
2004-01-05 12:36:47 51°20.123 2°46.956 142.9 13.7 134 20.3
2004-01-05 12:37:47 51°19.965 2°47.22 143.4 13.7 134 22.7
2004-01-05 12:38:47 51°19.804 2°47.481 141.7 14 133 23.8
2004-01-05 12:39:48 51°19.647 2°47.76 138.8 13.8 131 23.9
2004-01-05 12:40:47 51°19.498 2°48.034 139.7 13.9 131 22.8
2004-01-05 12:41:48 51°19.342 2°48.312 140.5 13.8 132 20.4
2004-01-05 12:42:46 51°19.197 2°48.579 138.2 13.7 129 18
2004-01-05 12:43:48 51°19.051 2°48.875 136.2 13.7 128 16
2004-01-05 12:44:47 51°18.905 2°49.152 138.2 13.9 131 13.1
2004-01-05 12:45:48 51°18.756 2°49.44 137.6 13.8 130 12.3
2004-01-05 12:46:47 51°18.609 2°49.716 137.1 13.9 130 14.2
2004-01-05 12:47:48 51°18.459 2°50.004 137.2 13.6 130 15.8
2004-01-05 12:48:46 51°18.32 2°50.278 137.2 13.8 129 16
2004-01-05 12:49:47 51°18.178 2°50.559 137.2 12.7 128 15.3
2004-01-05 12:50:47 51°18.072 2°50.757 149.7 6.6 136 14.8
2004-01-05 12:51:46 51°18.039 2°50.805 179.3 1 108 14.6
2004-01-05 12:52:47 51°18.032 2°50.826 191 0.8 130 14.5
2004-01-05 12:53:48 51°18.01 2°50.833 201.9 2 187 14.6
2004-01-05 12:54:48 51°17.977 2°50.817 212.7 2.1 205 14.3
2004-01-05 12:55:47 51°17.949 2°50.786 218.9 1.9 219 14.3
2004-01-05 12:56:48 51°17.93 2°50.76 224.2 1.3 231 14.3
2004-01-05 12:57:46 51°17.924 2°50.73 242.3 1.3 266 14.3
2004-01-05 12:58:46 51°17.929 2°50.693 257.7 1.5 290 14.5
2004-01-05 12:59:46 51°17.943 2°50.655 274.3 1.8 306 14.4
2004-01-05 13:00:47 51°17.968 2°50.615 294.6 2.3 323 14.6
2004-01-05 13:01:46 51°18.004 2°50.586 315.7 2.6 339 14.8
2004-01-05 13:02:46 51°18.051 2°50.575 344.8 3 359 14.9
2004-01-05 13:03:48 51°18.102 2°50.593 14.9 3.2 20 15
2004-01-05 13:04:46 51°18.148 2°50.635 41.7 3.3 37 15
2004-01-05 13:05:46 51°18.185 2°50.696 68.4 3.1 54 15
2004-01-05 13:06:47 51°18.21 2°50.766 90.9 2.9 68 15.1
2004-01-05 13:07:54 51°18.224 2°50.843 112.7 2.6 79 15
2004-01-05 13:09:02 51°18.23 2°50.915 121.7 2.9 91 14.9
2004-01-05 13:10:04 51°18.171 2°51.088 132.8 11.2 126 14.3
2004-01-05 13:11:09 51°18.003 2°51.348 146.9 13.5 141 12.8
2004-01-05 13:12:08 51°17.832 2°51.57 144.4 14 138 11.8
2004-01-05 13:13:10 51°17.658 2°51.816 144.9 13.5 139 11.8
2004-01-05 13:14:09 51°17.493 2°52.053 144 13.6 138 12
2004-01-05 13:15:09 51°17.336 2°52.311 141.1 13.5 134 11.9
2004-01-05 13:16:10 51°17.182 2°52.581 139.3 13.2 132 11.3
2004-01-05 13:17:09 51°17.031 2°52.841 138.1 13.4 132 11.4
2004-01-05 13:18:09 51°16.877 2°53.103 139.1 13.3 133 10
2004-01-05 13:19:10 51°16.716 2°53.375 138.6 14 133 13.1
2004-01-05 13:20:07 51°16.572 2°53.626 137.5 12 130 13.6
2004-01-05 13:21:10 51°16.472 2°53.782 157.6 5.7 145 13.7
2004-01-05 13:22:09 51°16.436 2°53.82 179.2 1.1 123 13.8
2004-01-05 13:23:09 51°16.427 2°53.84 190.9 0.9 137 13.7
2004-01-05 13:24:09 51°16.414 2°53.849 202.8 0.7 162 13.7
2004-01-05 13:25:09 51°16.403 2°53.851 211.2 0.6 186 13.7
2004-01-05 13:26:07 51°16.394 2°53.843 221.1 0.8 215 13.7
2004-01-05 13:27:07 51°16.384 2°53.822 231.2 1.1 240 13.7
2004-01-05 13:28:09 51°16.38 2°53.785 251.5 1.5 268 13.7
2004-01-05 13:29:09 51°16.386 2°53.737 269.8 2 289 13.8
2004-01-05 13:30:08 51°16.404 2°53.686 285.2 2.4 304 13.6
2004-01-05 13:31:07 51°16.433 2°53.636 299.1 2.7 315 13.9
2004-01-05 13:32:07 51°16.469 2°53.591 311.7 2.9 326 13.8
2004-01-05 13:33:09 51°16.516 2°53.554 326 3.1 339 13.6
2004-01-05 13:34:08 51°16.568 2°53.536 342.5 3.3 354 13.7
2004-01-05 13:35:09 51°16.627 2°53.537 359.5 3.5 7 13.6
2004-01-05 13:36:10 51°16.682 2°53.56 16 3.3 19 13.3
2004-01-05 13:37:08 51°16.727 2°53.598 34.5 3.1 33 13.3
2004-01-05 13:38:06 51°16.764 2°53.647 52.5 2.9 44 13
2004-01-05 13:39:09 51°16.795 2°53.743 88.9 5.4 78 13
2004-01-05 13:40:06 51°16.746 2°53.922 145.9 10.3 137 13.2
2004-01-05 13:41:09 51°16.54 2°54.027 168.7 13.2 164 13.2
2004-01-05 13:42:09 51°16.328 2°54.128 166.6 13.2 162 13
2004-01-05 13:43:09 51°16.115 2°54.226 168.3 13.3 164 12.7
2004-01-05 13:44:07 51°15.908 2°54.317 168.9 13.5 165 12
2004-01-05 13:45:08 51°15.692 2°54.412 166.9 13.3 164 11.2
2004-01-05 13:46:14 51°15.457 2°54.52 167 13.4 162 10.4
2004-01-05 13:47:14 51°15.241 2°54.599 178.3 13.4 176 9.7
2004-01-05 13:48:14 51°15.021 2°54.614 181.7 13.5 178 9.5
2004-01-05 13:49:14 51°14.8 2°54.666 171.6 13.9 168 10.5
2004-01-05 13:50:14 51°14.59 2°54.786 161.1 13.4 155 10.8
2004-01-05 13:51:35 51°14.37 2°55.053 137.6 11.8 134 11.6
2004-01-05 13:52:48 51°14.238 2°55.28 134.2 8.3 131 11
2004-01-05 13:54:38 51°14.075 2°55.46 159.6 5.8 156 10.5
2004-01-05 13:55:40 51°13.983 2°55.523 160.1 6.1 157 11